sensor_id;sensor_type;location;lat;lon;timestamp;pressure;altitude;pressure_sealevel;temperature;humidity
7474;BME280;3778;42.572;23.426;2023-12-20T00:03:19;93924.78;;;-0.82;89.06
7474;BME280;3778;42.572;23.426;2023-12-20T00:05:45;93927.06;;;-0.87;88.00
7474;BME280;3778;42.572;23.426;2023-12-20T00:08:10;93930.72;;;-0.96;89.49
7474;BME280;3778;42.572;23.426;2023-12-20T00:10:36;93925.19;;;-1.06;89.52
7474;BME280;3778;42.572;23.426;2023-12-20T00:13:01;93929.03;;;-1.11;89.52
7474;BME280;3778;42.572;23.426;2023-12-20T00:15:26;93918.66;;;-1.16;89.78
7474;BME280;3778;42.572;23.426;2023-12-20T00:17:52;93923.50;;;-1.21;90.36
7474;BME280;3778;42.572;23.426;2023-12-20T00:20:17;93918.81;;;-1.24;90.44
7474;BME280;3778;42.572;23.426;2023-12-20T00:22:43;93911.59;;;-1.27;90.28
7474;BME280;3778;42.572;23.426;2023-12-20T00:25:08;93910.19;;;-1.29;91.48
7474;BME280;3778;42.572;23.426;2023-12-20T00:27:33;93908.63;;;-1.30;91.05
7474;BME280;3778;42.572;23.426;2023-12-20T00:29:59;93899.84;;;-1.35;91.22
7474;BME280;3778;42.572;23.426;2023-12-20T00:32:25;93896.34;;;-1.33;90.92
7474;BME280;3778;42.572;23.426;2023-12-20T00:34:50;93901.00;;;-1.37;91.03
7474;BME280;3778;42.572;23.426;2023-12-20T00:37:15;93900.41;;;-1.39;91.05
7474;BME280;3778;42.572;23.426;2023-12-20T00:39:41;93891.22;;;-1.40;90.14
7474;BME280;3778;42.572;23.426;2023-12-20T00:42:07;93886.34;;;-1.42;90.88
7474;BME280;3778;42.572;23.426;2023-12-20T00:44:32;93887.34;;;-1.43;91.34
7474;BME280;3778;42.572;23.426;2023-12-20T00:46:58;93881.50;;;-1.43;90.61
7474;BME280;3778;42.572;23.426;2023-12-20T00:49:23;93876.63;;;-1.45;90.94
7474;BME280;3778;42.572;23.426;2023-12-20T00:51:48;93869.97;;;-1.46;91.53
7474;BME280;3778;42.572;23.426;2023-12-20T00:54:16;93870.94;;;-1.47;90.46
7474;BME280;3778;42.572;23.426;2023-12-20T00:56:41;93870.78;;;-1.45;91.26
7474;BME280;3778;42.572;23.426;2023-12-20T00:59:06;93860.31;;;-1.42;90.48
7474;BME280;3778;42.572;23.426;2023-12-20T01:01:32;93863.41;;;-1.40;91.00
7474;BME280;3778;42.572;23.426;2023-12-20T01:03:58;93860.13;;;-1.41;90.15
7474;BME280;3778;42.572;23.426;2023-12-20T01:06:23;93853.50;;;-1.42;90.17
7474;BME280;3778;42.572;23.426;2023-12-20T01:08:49;93850.78;;;-1.40;90.58
7474;BME280;3778;42.572;23.426;2023-12-20T01:11:14;93845.13;;;-1.42;89.91
7474;BME280;3778;42.572;23.426;2023-12-20T01:13:40;93845.66;;;-1.47;90.27
7474;BME280;3778;42.572;23.426;2023-12-20T01:16:05;93850.38;;;-1.44;90.30
7474;BME280;3778;42.572;23.426;2023-12-20T01:18:31;93846.88;;;-1.43;90.87
7474;BME280;3778;42.572;23.426;2023-12-20T01:20:56;93841.25;;;-1.45;90.23
7474;BME280;3778;42.572;23.426;2023-12-20T01:23:21;93839.06;;;-1.48;90.95
7474;BME280;3778;42.572;23.426;2023-12-20T01:25:48;93837.31;;;-1.47;90.67
7474;BME280;3778;42.572;23.426;2023-12-20T01:28:13;93829.19;;;-1.43;90.75
7474;BME280;3778;42.572;23.426;2023-12-20T01:30:39;93820.81;;;-1.43;89.72
7474;BME280;3778;42.572;23.426;2023-12-20T01:33:04;93815.78;;;-1.43;90.63
7474;BME280;3778;42.572;23.426;2023-12-20T01:35:30;93812.28;;;-1.42;90.55
7474;BME280;3778;42.572;23.426;2023-12-20T01:37:55;93808.19;;;-1.43;89.16
7474;BME280;3778;42.572;23.426;2023-12-20T01:40:23;93804.69;;;-1.42;89.63
7474;BME280;3778;42.572;23.426;2023-12-20T01:43:04;93790.84;;;-1.46;89.01
7474;BME280;3778;42.572;23.426;2023-12-20T01:45:30;93791.03;;;-1.48;89.86
7474;BME280;3778;42.572;23.426;2023-12-20T01:47:57;93785.19;;;-1.48;90.40
7474;BME280;3778;42.572;23.426;2023-12-20T01:50:24;93785.97;;;-1.48;89.77
7474;BME280;3778;42.572;23.426;2023-12-20T01:52:50;93787.13;;;-1.50;89.22
7474;BME280;3778;42.572;23.426;2023-12-20T01:55:19;93775.47;;;-1.51;89.73
7474;BME280;3778;42.572;23.426;2023-12-20T01:57:44;93777.38;;;-1.53;89.36
7474;BME280;3778;42.572;23.426;2023-12-20T02:00:11;93766.88;;;-1.57;89.79
7474;BME280;3778;42.572;23.426;2023-12-20T02:02:39;93766.88;;;-1.57;90.26
7474;BME280;3778;42.572;23.426;2023-12-20T02:05:09;93761.38;;;-1.60;89.07
7474;BME280;3778;42.572;23.426;2023-12-20T02:07:35;93758.09;;;-1.61;89.28
7474;BME280;3778;42.572;23.426;2023-12-20T02:10:01;93758.28;;;-1.63;89.66
7474;BME280;3778;42.572;23.426;2023-12-20T02:12:26;93762.59;;;-1.56;89.15
7474;BME280;3778;42.572;23.426;2023-12-20T02:14:52;93753.06;;;-1.54;89.67
7474;BME280;3778;42.572;23.426;2023-12-20T02:17:19;93750.53;;;-1.54;89.03
7474;BME280;3778;42.572;23.426;2023-12-20T02:19:45;93752.28;;;-1.55;88.58
7474;BME280;3778;42.572;23.426;2023-12-20T02:22:11;93756.16;;;-1.59;89.72
7474;BME280;3778;42.572;23.426;2023-12-20T02:24:37;93748.75;;;-1.60;88.97
7474;BME280;3778;42.572;23.426;2023-12-20T02:27:03;93753.22;;;-1.63;89.77
7474;BME280;3778;42.572;23.426;2023-12-20T02:29:29;93753.81;;;-1.60;88.83
7474;BME280;3778;42.572;23.426;2023-12-20T02:31:54;93746.59;;;-1.64;88.59
7474;BME280;3778;42.572;23.426;2023-12-20T02:34:20;93742.34;;;-1.63;89.54
7474;BME280;3778;42.572;23.426;2023-12-20T02:36:45;93740.59;;;-1.63;89.34
7474;BME280;3778;42.572;23.426;2023-12-20T02:39:11;93733.78;;;-1.62;89.61
7474;BME280;3778;42.572;23.426;2023-12-20T02:41:36;93734.75;;;-1.63;88.28
7474;BME280;3778;42.572;23.426;2023-12-20T02:44:02;93726.56;;;-1.65;88.02
7474;BME280;3778;42.572;23.426;2023-12-20T02:46:27;93728.91;;;-1.64;88.59
7474;BME280;3778;42.572;23.426;2023-12-20T02:48:52;93721.88;;;-1.68;89.28
7474;BME280;3778;42.572;23.426;2023-12-20T02:51:18;93725.97;;;-1.67;89.02
7474;BME280;3778;42.572;23.426;2023-12-20T02:53:43;93717.03;;;-1.70;89.14
7474;BME280;3778;42.572;23.426;2023-12-20T02:56:09;93719.31;;;-1.75;88.58
7474;BME280;3778;42.572;23.426;2023-12-20T02:58:34;93717.56;;;-1.74;88.43
7474;BME280;3778;42.572;23.426;2023-12-20T03:00:59;93713.47;;;-1.75;89.26
7474;BME280;3778;42.572;23.426;2023-12-20T03:03:25;93717.75;;;-1.76;87.87
7474;BME280;3778;42.572;23.426;2023-12-20T03:05:50;93715.03;;;-1.74;88.78
7474;BME280;3778;42.572;23.426;2023-12-20T03:08:15;93711.72;;;-1.75;88.87
7474;BME280;3778;42.572;23.426;2023-12-20T03:10:41;93712.69;;;-1.76;88.01
7474;BME280;3778;42.572;23.426;2023-12-20T03:13:06;93718.69;;;-1.77;88.97
7474;BME280;3778;42.572;23.426;2023-12-20T03:15:32;93714.22;;;-1.81;88.58
7474;BME280;3778;42.572;23.426;2023-12-20T03:17:57;93716.53;;;-1.80;88.00
7474;BME280;3778;42.572;23.426;2023-12-20T03:20:24;93711.31;;;-1.78;88.21
7474;BME280;3778;42.572;23.426;2023-12-20T03:22:51;93722.38;;;-1.79;88.91
7474;BME280;3778;42.572;23.426;2023-12-20T03:25:16;93711.06;;;-1.83;88.91
7474;BME280;3778;42.572;23.426;2023-12-20T03:27:42;93721.16;;;-1.83;88.36
7474;BME280;3778;42.572;23.426;2023-12-20T03:30:07;93715.72;;;-1.87;88.77
7474;BME280;3778;42.572;23.426;2023-12-20T03:32:33;93713.97;;;-1.86;87.97
7474;BME280;3778;42.572;23.426;2023-12-20T03:34:58;93712.56;;;-1.89;88.19
7474;BME280;3778;42.572;23.426;2023-12-20T03:37:24;93708.69;;;-1.92;87.84
7474;BME280;3778;42.572;23.426;2023-12-20T03:39:49;93706.50;;;-1.95;89.06
7474;BME280;3778;42.572;23.426;2023-12-20T03:42:14;93710.19;;;-1.97;88.56
7474;BME280;3778;42.572;23.426;2023-12-20T03:44:40;93707.63;;;-2.04;88.87
7474;BME280;3778;42.572;23.426;2023-12-20T03:47:06;93708.75;;;-2.06;89.40
7474;BME280;3778;42.572;23.426;2023-12-20T03:49:31;93706.16;;;-2.13;89.60
7474;BME280;3778;42.572;23.426;2023-12-20T03:51:57;93697.22;;;-2.16;89.86
7474;BME280;3778;42.572;23.426;2023-12-20T03:54:22;93708.81;;;-2.21;89.35
7474;BME280;3778;42.572;23.426;2023-12-20T03:56:47;93700.41;;;-2.28;89.84
7474;BME280;3778;42.572;23.426;2023-12-20T03:59:13;93695.91;;;-2.33;89.78
7474;BME280;3778;42.572;23.426;2023-12-20T04:01:43;93691.22;;;-2.36;90.77
7474;BME280;3778;42.572;23.426;2023-12-20T04:04:08;93689.03;;;-2.39;91.07
7474;BME280;3778;42.572;23.426;2023-12-20T04:06:34;93696.63;;;-2.39;90.48
7474;BME280;3778;42.572;23.426;2023-12-20T04:08:59;93684.59;;;-2.37;90.61
7474;BME280;3778;42.572;23.426;2023-12-20T04:11:25;93689.81;;;-2.38;90.07
7474;BME280;3778;42.572;23.426;2023-12-20T04:13:50;93686.72;;;-2.40;90.17
7474;BME280;3778;42.572;23.426;2023-12-20T04:16:15;93686.53;;;-2.39;89.87
7474;BME280;3778;42.572;23.426;2023-12-20T04:18:41;93682.88;;;-2.36;90.62
7474;BME280;3778;42.572;23.426;2023-12-20T04:21:06;93679.19;;;-2.34;90.24
7474;BME280;3778;42.572;23.426;2023-12-20T04:23:32;93678.66;;;-2.29;89.79
7474;BME280;3778;42.572;23.426;2023-12-20T04:25:57;93671.50;;;-2.26;89.23
7474;BME280;3778;42.572;23.426;2023-12-20T04:28:23;93673.22;;;-2.26;89.28
7474;BME280;3778;42.572;23.426;2023-12-20T04:30:49;93678.03;;;-2.31;89.27
7474;BME280;3778;42.572;23.426;2023-12-20T04:33:14;93666.38;;;-2.32;89.60
7474;BME280;3778;42.572;23.426;2023-12-20T04:35:39;93658.41;;;-2.36;90.38
7474;BME280;3778;42.572;23.426;2023-12-20T04:38:06;93668.50;;;-2.36;90.09
7474;BME280;3778;42.572;23.426;2023-12-20T04:40:31;93658.16;;;-2.41;90.74
7474;BME280;3778;42.572;23.426;2023-12-20T04:42:57;93660.06;;;-2.43;90.51
7474;BME280;3778;42.572;23.426;2023-12-20T04:45:22;93657.56;;;-2.43;89.92
7474;BME280;3778;42.572;23.426;2023-12-20T04:47:50;93651.91;;;-2.45;90.39
7474;BME280;3778;42.572;23.426;2023-12-20T04:50:15;93653.06;;;-2.48;90.32
7474;BME280;3778;42.572;23.426;2023-12-20T04:52:41;93651.91;;;-2.45;90.72
7474;BME280;3778;42.572;23.426;2023-12-20T04:55:06;93642.97;;;-2.48;91.33
7474;BME280;3778;42.572;23.426;2023-12-20T04:57:32;93631.31;;;-2.49;90.22
7474;BME280;3778;42.572;23.426;2023-12-20T04:59:57;93640.59;;;-2.49;90.00
7474;BME280;3778;42.572;23.426;2023-12-20T05:02:22;93640.59;;;-2.49;89.92
7474;BME280;3778;42.572;23.426;2023-12-20T05:04:48;93637.31;;;-2.50;90.51
7474;BME280;3778;42.572;23.426;2023-12-20T05:07:13;93634.00;;;-2.50;90.49
7474;BME280;3778;42.572;23.426;2023-12-20T05:09:39;93635.75;;;-2.51;90.34
7474;BME280;3778;42.572;23.426;2023-12-20T05:12:04;93631.47;;;-2.50;90.64
7474;BME280;3778;42.572;23.426;2023-12-20T05:14:30;93630.50;;;-2.49;89.54
7474;BME280;3778;42.572;23.426;2023-12-20T05:16:56;93629.19;;;-2.45;89.52
7474;BME280;3778;42.572;23.426;2023-12-20T05:19:21;93623.56;;;-2.47;90.34
7474;BME280;3778;42.572;23.426;2023-12-20T05:21:47;93626.09;;;-2.47;89.88
7474;BME280;3778;42.572;23.426;2023-12-20T05:24:12;93616.00;;;-2.47;89.52
7474;BME280;3778;42.572;23.426;2023-12-20T05:26:38;93616.59;;;-2.45;89.44
7474;BME280;3778;42.572;23.426;2023-12-20T05:29:03;93623.19;;;-2.44;89.15
7474;BME280;3778;42.572;23.426;2023-12-20T05:31:28;93618.91;;;-2.44;89.60
7474;BME280;3778;42.572;23.426;2023-12-20T05:33:54;93614.06;;;-2.45;88.82
7474;BME280;3778;42.572;23.426;2023-12-20T05:36:19;93608.59;;;-2.49;88.95
7474;BME280;3778;42.572;23.426;2023-12-20T05:38:45;93606.44;;;-2.52;89.11
7474;BME280;3778;42.572;23.426;2023-12-20T05:41:10;93603.91;;;-2.52;90.05
7474;BME280;3778;42.572;23.426;2023-12-20T05:43:36;93609.94;;;-2.53;89.52
7474;BME280;3778;42.572;23.426;2023-12-20T05:46:02;93601.94;;;-2.56;89.98
7474;BME280;3778;42.572;23.426;2023-12-20T05:48:27;93595.91;;;-2.55;89.86
7474;BME280;3778;42.572;23.426;2023-12-20T05:50:52;93598.63;;;-2.57;90.00
7474;BME280;3778;42.572;23.426;2023-12-20T05:53:18;93595.50;;;-2.59;89.47
7474;BME280;3778;42.572;23.426;2023-12-20T05:55:43;93595.84;;;-2.62;89.91
7474;BME280;3778;42.572;23.426;2023-12-20T05:58:08;93600.75;;;-2.60;88.94
7474;BME280;3778;42.572;23.426;2023-12-20T06:00:34;93595.09;;;-2.62;89.83
7474;BME280;3778;42.572;23.426;2023-12-20T06:02:59;93596.03;;;-2.63;89.42
7474;BME280;3778;42.572;23.426;2023-12-20T06:05:25;93586.19;;;-2.58;89.09
7474;BME280;3778;42.572;23.426;2023-12-20T06:07:50;93582.31;;;-2.61;89.74
7474;BME280;3778;42.572;23.426;2023-12-20T06:10:16;93575.88;;;-2.63;90.13
7474;BME280;3778;42.572;23.426;2023-12-20T06:12:41;93585.78;;;-2.62;90.08
7474;BME280;3778;42.572;23.426;2023-12-20T06:15:07;93588.91;;;-2.60;89.24
7474;BME280;3778;42.572;23.426;2023-12-20T06:17:33;93583.25;;;-2.62;89.77
7474;BME280;3778;42.572;23.426;2023-12-20T06:20:00;93584.63;;;-2.59;89.72
7474;BME280;3778;42.572;23.426;2023-12-20T06:22:25;93591.25;;;-2.58;89.36
7474;BME280;3778;42.572;23.426;2023-12-20T06:24:51;93598.81;;;-2.58;88.64
7474;BME280;3778;42.572;23.426;2023-12-20T06:27:17;93591.25;;;-2.58;89.52
7474;BME280;3778;42.572;23.426;2023-12-20T06:29:42;93590.28;;;-2.57;89.09
7474;BME280;3778;42.572;23.426;2023-12-20T06:32:10;93595.56;;;-2.52;88.53
7474;BME280;3778;42.572;23.426;2023-12-20T06:34:35;93594.19;;;-2.55;88.76
7474;BME280;3778;42.572;23.426;2023-12-20T06:37:00;93596.34;;;-2.52;89.25
7474;BME280;3778;42.572;23.426;2023-12-20T06:39:26;93591.53;;;-2.47;88.83
7474;BME280;3778;42.572;23.426;2023-12-20T06:41:51;93588.22;;;-2.47;88.42
7474;BME280;3778;42.572;23.426;2023-12-20T06:44:16;93585.72;;;-2.47;88.13
7474;BME280;3778;42.572;23.426;2023-12-20T06:46:42;93581.06;;;-2.44;88.24
7474;BME280;3778;42.572;23.426;2023-12-20T06:49:08;93579.94;;;-2.41;88.52
7474;BME280;3778;42.572;23.426;2023-12-20T06:51:33;93580.53;;;-2.39;88.81
7474;BME280;3778;42.572;23.426;2023-12-20T06:53:59;93576.28;;;-2.32;88.53
7474;BME280;3778;42.572;23.426;2023-12-20T06:56:25;93575.94;;;-2.29;88.39
7474;BME280;3778;42.572;23.426;2023-12-20T06:58:50;93567.41;;;-2.28;88.45
7474;BME280;3778;42.572;23.426;2023-12-20T07:01:16;93566.66;;;-2.22;87.88
7474;BME280;3778;42.572;23.426;2023-12-20T07:03:42;93561.19;;;-2.25;88.31
7474;BME280;3778;42.572;23.426;2023-12-20T07:06:07;93564.91;;;-2.21;88.40
7474;BME280;3778;42.572;23.426;2023-12-20T07:08:33;93559.69;;;-2.20;87.51
7474;BME280;3778;42.572;23.426;2023-12-20T07:10:59;93558.16;;;-2.14;87.21
7474;BME280;3778;42.572;23.426;2023-12-20T07:13:24;93549.84;;;-2.08;87.14
7474;BME280;3778;42.572;23.426;2023-12-20T07:15:50;93551.38;;;-2.13;87.28
7474;BME280;3778;42.572;23.426;2023-12-20T07:18:15;93550.25;;;-2.11;88.21
7474;BME280;3778;42.572;23.426;2023-12-20T07:20:41;93547.72;;;-2.11;87.31
7474;BME280;3778;42.572;23.426;2023-12-20T07:23:06;93547.88;;;-2.12;88.25
7474;BME280;3778;42.572;23.426;2023-12-20T07:25:31;93543.44;;;-2.10;87.55
7474;BME280;3778;42.572;23.426;2023-12-20T07:27:58;93542.31;;;-2.01;87.21
7474;BME280;3778;42.572;23.426;2023-12-20T07:30:23;93547.59;;;-1.96;86.92
7474;BME280;3778;42.572;23.426;2023-12-20T07:32:49;93542.16;;;-2.00;87.78
7474;BME280;3778;42.572;23.426;2023-12-20T07:35:15;93540.41;;;-1.99;86.88
7474;BME280;3778;42.572;23.426;2023-12-20T07:37:41;93543.31;;;-1.96;87.39
7474;BME280;3778;42.572;23.426;2023-12-20T07:40:07;93539.81;;;-1.95;86.50
7474;BME280;3778;42.572;23.426;2023-12-20T07:42:33;93529.56;;;-1.93;87.78
7474;BME280;3778;42.572;23.426;2023-12-20T07:44:58;93533.25;;;-1.89;87.62
7474;BME280;3778;42.572;23.426;2023-12-20T07:47:24;93532.88;;;-1.86;86.84
7474;BME280;3778;42.572;23.426;2023-12-20T07:49:51;93530.16;;;-1.84;86.56
7474;BME280;3778;42.572;23.426;2023-12-20T07:52:19;93521.84;;;-1.78;86.25
7474;BME280;3778;42.572;23.426;2023-12-20T07:54:45;93527.69;;;-1.71;86.94
7474;BME280;3778;42.572;23.426;2023-12-20T07:57:11;93535.50;;;-1.59;86.16
7474;BME280;3778;42.572;23.426;2023-12-20T07:59:36;93533.44;;;-1.43;86.70
7474;BME280;3778;42.572;23.426;2023-12-20T08:02:02;93539.13;;;-1.27;86.09
7474;BME280;3778;42.572;23.426;2023-12-20T08:04:27;93521.47;;;-1.08;85.65
7474;BME280;3778;42.572;23.426;2023-12-20T08:06:53;93519.16;;;-0.89;83.95
7474;BME280;3778;42.572;23.426;2023-12-20T08:09:18;93519.94;;;-0.82;84.07
7474;BME280;3778;42.572;23.426;2023-12-20T08:11:47;93529.09;;;-0.68;84.08
7474;BME280;3778;42.572;23.426;2023-12-20T08:14:13;93525.78;;;-0.62;82.56
7474;BME280;3778;42.572;23.426;2023-12-20T08:16:39;93522.66;;;-0.50;83.50
7474;BME280;3778;42.572;23.426;2023-12-20T08:19:04;93510.97;;;-0.38;82.66
7474;BME280;3778;42.572;23.426;2023-12-20T08:21:29;93506.88;;;-0.39;82.04
7474;BME280;3778;42.572;23.426;2023-12-20T08:23:55;93513.16;;;-0.48;82.34
7474;BME280;3778;42.572;23.426;2023-12-20T08:26:21;93508.66;;;-0.53;83.25
7474;BME280;3778;42.572;23.426;2023-12-20T08:28:48;93502.03;;;-0.47;82.89
7474;BME280;3778;42.572;23.426;2023-12-20T08:31:17;93499.88;;;-0.44;82.71
7474;BME280;3778;42.572;23.426;2023-12-20T08:33:47;93490.94;;;-0.46;82.36
7474;BME280;3778;42.572;23.426;2023-12-20T08:36:13;93491.13;;;-0.48;82.67
7474;BME280;3778;42.572;23.426;2023-12-20T08:38:38;93480.22;;;-0.48;83.36
7474;BME280;3778;42.572;23.426;2023-12-20T08:41:04;93470.28;;;-0.43;82.78
7474;BME280;3778;42.572;23.426;2023-12-20T08:43:34;93473.78;;;-0.44;82.61
7474;BME280;3778;42.572;23.426;2023-12-20T08:46:00;93468.53;;;-0.36;83.70
7474;BME280;3778;42.572;23.426;2023-12-20T08:48:25;93470.28;;;-0.30;83.57
7474;BME280;3778;42.572;23.426;2023-12-20T08:50:51;93473.94;;;-0.19;82.77
7474;BME280;3778;42.572;23.426;2023-12-20T08:53:18;93470.41;;;-0.18;82.89
7474;BME280;3778;42.572;23.426;2023-12-20T08:55:44;93465.50;;;-0.07;82.45
7474;BME280;3778;42.572;23.426;2023-12-20T08:58:09;93466.84;;;0.09;81.18
7474;BME280;3778;42.572;23.426;2023-12-20T09:00:35;93459.53;;;0.33;81.82
7474;BME280;3778;42.572;23.426;2023-12-20T09:03:01;93453.78;;;0.50;80.81
7474;BME280;3778;42.572;23.426;2023-12-20T09:05:27;93446.66;;;0.66;79.36
7474;BME280;3778;42.572;23.426;2023-12-20T09:07:53;93444.19;;;0.59;79.48
7474;BME280;3778;42.572;23.426;2023-12-20T09:10:19;93430.50;;;0.67;80.07
7474;BME280;3778;42.572;23.426;2023-12-20T09:12:49;93425.53;;;0.78;79.09
7474;BME280;3778;42.572;23.426;2023-12-20T09:15:14;93425.72;;;0.77;80.72
7474;BME280;3778;42.572;23.426;2023-12-20T09:17:40;93415.47;;;0.90;80.51
7474;BME280;3778;42.572;23.426;2023-12-20T09:20:07;93416.63;;;0.94;79.55
7474;BME280;3778;42.572;23.426;2023-12-20T09:22:33;93402.72;;;1.03;80.39
7474;BME280;3778;42.572;23.426;2023-12-20T09:24:59;93402.00;;;1.15;78.01
7474;BME280;3778;42.572;23.426;2023-12-20T09:27:25;93389.97;;;1.10;78.35
7474;BME280;3778;42.572;23.426;2023-12-20T09:29:50;93389.25;;;1.21;78.08
7474;BME280;3778;42.572;23.426;2023-12-20T09:32:16;93383.94;;;1.29;78.21
7474;BME280;3778;42.572;23.426;2023-12-20T09:34:41;93369.13;;;1.45;77.88
7474;BME280;3778;42.572;23.426;2023-12-20T09:37:07;93366.50;;;1.51;78.10
7474;BME280;3778;42.572;23.426;2023-12-20T09:39:33;93354.47;;;1.47;78.00
7474;BME280;3778;42.572;23.426;2023-12-20T09:42:03;93358.56;;;1.48;78.92
7474;BME280;3778;42.572;23.426;2023-12-20T09:44:30;93353.13;;;1.63;77.96
7474;BME280;3778;42.572;23.426;2023-12-20T09:46:56;93345.22;;;1.71;78.56
7474;BME280;3778;42.572;23.426;2023-12-20T09:49:22;93349.56;;;2.00;77.94
7474;BME280;3778;42.572;23.426;2023-12-20T09:51:50;93344.94;;;2.09;75.97
7474;BME280;3778;42.572;23.426;2023-12-20T09:54:19;93337.88;;;2.11;77.49
7474;BME280;3778;42.572;23.426;2023-12-20T09:56:46;93332.75;;;2.41;76.05
7474;BME280;3778;42.572;23.426;2023-12-20T09:59:12;93324.94;;;2.54;75.88
7474;BME280;3778;42.572;23.426;2023-12-20T10:01:39;93313.38;;;2.93;73.60
7474;BME280;3778;42.572;23.426;2023-12-20T10:04:06;93315.91;;;3.05;73.66
7474;BME280;3778;42.572;23.426;2023-12-20T10:06:36;93310.13;;;3.33;72.87
7474;BME280;3778;42.572;23.426;2023-12-20T10:09:02;93293.38;;;3.49;72.55
7474;BME280;3778;42.572;23.426;2023-12-20T10:11:27;93292.69;;;3.94;70.04
7474;BME280;3778;42.572;23.426;2023-12-20T10:13:59;93286.38;;;3.96;69.75
7474;BME280;3778;42.572;23.426;2023-12-20T10:16:26;93287.69;;;3.99;69.71
7474;BME280;3778;42.572;23.426;2023-12-20T10:18:53;93275.22;;;4.31;68.76
7474;BME280;3778;42.572;23.426;2023-12-20T10:21:18;93275.47;;;4.46;68.80
7474;BME280;3778;42.572;23.426;2023-12-20T10:23:44;93273.91;;;4.79;67.32
7474;BME280;3778;42.572;23.426;2023-12-20T10:26:10;93270.34;;;4.80;66.72
7474;BME280;3778;42.572;23.426;2023-12-20T10:28:44;93269.88;;;4.66;67.74
7474;BME280;3778;42.572;23.426;2023-12-20T10:31:09;93268.50;;;4.92;67.13
7474;BME280;3778;42.572;23.426;2023-12-20T10:33:35;93269.06;;;4.44;66.88
7474;BME280;3778;42.572;23.426;2023-12-20T10:36:00;93264.63;;;4.22;68.77
7474;BME280;3778;42.572;23.426;2023-12-20T10:38:26;93259.78;;;3.92;69.21
7474;BME280;3778;42.572;23.426;2023-12-20T10:40:57;93272.72;;;3.34;71.93
7474;BME280;3778;42.572;23.426;2023-12-20T10:43:26;93263.84;;;3.36;71.38
7474;BME280;3778;42.572;23.426;2023-12-20T10:45:54;93262.56;;;3.22;71.17
7474;BME280;3778;42.572;23.426;2023-12-20T10:48:19;93260.66;;;3.17;71.68
7474;BME280;3778;42.572;23.426;2023-12-20T10:50:47;93248.84;;;3.00;73.10
7474;BME280;3778;42.572;23.426;2023-12-20T10:53:13;93267.28;;;3.30;71.93
7474;BME280;3778;42.572;23.426;2023-12-20T10:55:39;93246.41;;;3.45;70.95
7474;BME280;3778;42.572;23.426;2023-12-20T10:58:08;93247.34;;;3.67;69.59
7474;BME280;3778;42.572;23.426;2023-12-20T11:00:41;93234.34;;;3.52;69.90
7474;BME280;3778;42.572;23.426;2023-12-20T11:03:09;93229.59;;;3.72;72.00
7474;BME280;3778;42.572;23.426;2023-12-20T11:05:46;93232.34;;;3.54;71.19
7474;BME280;3778;42.572;23.426;2023-12-20T11:08:22;93215.47;;;3.82;70.92
7474;BME280;3778;42.572;23.426;2023-12-20T11:10:58;93210.66;;;4.14;70.14
7474;BME280;3778;42.572;23.426;2023-12-20T11:13:43;93203.31;;;4.51;70.84
7474;BME280;3778;42.572;23.426;2023-12-20T11:16:13;93198.75;;;4.53;67.68
7474;BME280;3778;42.572;23.426;2023-12-20T11:18:40;93192.72;;;4.59;67.60
7474;BME280;3778;42.572;23.426;2023-12-20T11:21:05;93194.13;;;4.50;67.83
7474;BME280;3778;42.572;23.426;2023-12-20T11:23:34;93192.59;;;4.32;67.65
7474;BME280;3778;42.572;23.426;2023-12-20T11:26:01;93186.16;;;4.29;70.25
7474;BME280;3778;42.572;23.426;2023-12-20T11:28:27;93186.56;;;4.38;67.25
7474;BME280;3778;42.572;23.426;2023-12-20T11:30:56;93178.75;;;4.45;68.12
7474;BME280;3778;42.572;23.426;2023-12-20T11:33:24;93163.66;;;4.43;69.03
7474;BME280;3778;42.572;23.426;2023-12-20T11:35:50;93162.72;;;4.49;67.85
7474;BME280;3778;42.572;23.426;2023-12-20T11:38:15;93168.59;;;4.50;67.44
7474;BME280;3778;42.572;23.426;2023-12-20T11:40:42;93159.50;;;4.76;66.81
7474;BME280;3778;42.572;23.426;2023-12-20T11:43:08;93148.66;;;4.86;66.59
7474;BME280;3778;42.572;23.426;2023-12-20T11:45:33;93143.84;;;5.11;67.91
7474;BME280;3778;42.572;23.426;2023-12-20T11:48:01;93141.53;;;5.36;64.82
7474;BME280;3778;42.572;23.426;2023-12-20T11:50:27;93134.78;;;5.79;65.79
7474;BME280;3778;42.572;23.426;2023-12-20T11:52:53;93133.00;;;6.07;63.79
7474;BME280;3778;42.572;23.426;2023-12-20T11:55:21;93135.44;;;6.29;61.09
7474;BME280;3778;42.572;23.426;2023-12-20T11:57:46;93131.22;;;6.12;62.42
7474;BME280;3778;42.572;23.426;2023-12-20T12:00:13;93127.25;;;6.79;59.55
7474;BME280;3778;42.572;23.426;2023-12-20T12:02:39;93113.22;;;6.87;58.14
7474;BME280;3778;42.572;23.426;2023-12-20T12:05:04;93100.88;;;8.38;55.18
7474;BME280;3778;42.572;23.426;2023-12-20T12:07:31;93092.66;;;7.55;56.71
7474;BME280;3778;42.572;23.426;2023-12-20T12:09:57;93100.38;;;7.90;55.78
7474;BME280;3778;42.572;23.426;2023-12-20T12:12:22;93092.84;;;8.55;52.83
7474;BME280;3778;42.572;23.426;2023-12-20T12:14:49;93088.91;;;8.93;53.59
7474;BME280;3778;42.572;23.426;2023-12-20T12:17:15;93079.56;;;9.12;52.53
7474;BME280;3778;42.572;23.426;2023-12-20T12:19:41;93073.03;;;8.71;53.71
7474;BME280;3778;42.572;23.426;2023-12-20T12:22:14;93076.75;;;7.98;56.00
7474;BME280;3778;42.572;23.426;2023-12-20T12:24:41;93076.75;;;8.03;55.75
7474;BME280;3778;42.572;23.426;2023-12-20T12:27:07;93061.06;;;9.10;53.35
7474;BME280;3778;42.572;23.426;2023-12-20T12:29:33;93068.75;;;10.23;51.40
7474;BME280;3778;42.572;23.426;2023-12-20T12:31:59;93065.88;;;11.77;48.87
7474;BME280;3778;42.572;23.426;2023-12-20T12:34:27;93057.84;;;12.71;45.87
7474;BME280;3778;42.572;23.426;2023-12-20T12:36:53;93041.66;;;12.38;45.69
7474;BME280;3778;42.572;23.426;2023-12-20T12:39:18;93052.78;;;12.39;44.49
7474;BME280;3778;42.572;23.426;2023-12-20T12:41:43;93058.38;;;10.33;48.15
7474;BME280;3778;42.572;23.426;2023-12-20T12:44:09;93053.75;;;10.30;48.89
7474;BME280;3778;42.572;23.426;2023-12-20T12:46:34;93045.06;;;9.92;48.92
7474;BME280;3778;42.572;23.426;2023-12-20T12:49:00;93056.59;;;8.67;53.13
7474;BME280;3778;42.572;23.426;2023-12-20T12:51:25;93047.19;;;9.11;52.75
7474;BME280;3778;42.572;23.426;2023-12-20T12:53:51;93048.13;;;8.66;53.38
7474;BME280;3778;42.572;23.426;2023-12-20T12:56:17;93047.78;;;7.83;56.75
7474;BME280;3778;42.572;23.426;2023-12-20T12:58:42;93055.19;;;7.33;58.55
7474;BME280;3778;42.572;23.426;2023-12-20T13:01:07;93048.78;;;7.56;60.64
7474;BME280;3778;42.572;23.426;2023-12-20T13:03:33;93050.06;;;7.99;60.26
7474;BME280;3778;42.572;23.426;2023-12-20T13:05:59;93054.44;;;7.99;56.68
7474;BME280;3778;42.572;23.426;2023-12-20T13:08:25;93047.00;;;7.72;58.16
7474;BME280;3778;42.572;23.426;2023-12-20T13:10:51;93059.81;;;7.41;58.49